Time;durP1;ratioP1;P1;durP2;ratioP2;P2;SDS_P1;SDS_P2;PMS_P1;PMS_P2;Temp;Humidity;BMP_temperature;BMP_pressure;BME280_temperature;BME280_humidity;BME280_pressure;Samples;Min_cycle;Max_cycle;Signal;HPM_P1;HPM_P2
2022/03/08 00:00:53;;;;;;;112.28;52.55;;;;;;;;;;5055006;28;20910;-93
2022/03/08 00:03:19;;;;;;;110.55;52.22;;;;;;;;;;5062069;28;20692;-94
2022/03/08 00:05:46;;;;;;;112.35;52.85;;;;;;;;;;5062856;28;20196;-93
2022/03/08 00:08:13;;;;;;;113.57;53.50;;;;;;;;;;5062792;28;20254;-93
2022/03/08 00:10:39;;;;;;;116.63;54.08;;;;;;;;;;5053084;28;20268;-93
2022/03/08 00:13:06;;;;;;;116.20;53.80;;;;;;;;;;5042641;28;20197;-93
2022/03/08 00:15:32;;;;;;;115.50;53.70;;;;;;;;;;5052552;28;20200;-93
2022/03/08 00:18:00;;;;;;;115.82;55.17;;;;;;;;;;5062627;28;20207;-93
2022/03/08 00:20:27;;;;;;;115.93;54.17;;;;;;;;;;5062020;28;20192;-93
2022/03/08 00:22:53;;;;;;;119.82;54.50;;;;;;;;;;5061692;28;20200;-93
2022/03/08 00:25:20;;;;;;;111.07;51.95;;;;;;;;;;5043280;28;20205;-93
2022/03/08 00:27:47;;;;;;;115.78;53.28;;;;;;;;;;5041083;28;20231;-92
2022/03/08 00:30:14;;;;;;;118.43;54.80;;;;;;;;;;5047558;28;20279;-93
2022/03/08 00:32:41;;;;;;;113.45;53.85;;;;;;;;;;5062358;28;20207;-93
2022/03/08 00:35:09;;;;;;;121.93;55.20;;;;;;;;;;5061677;28;20192;-93
2022/03/08 00:37:36;;;;;;;117.15;55.70;;;;;;;;;;5065009;28;20249;-93
2022/03/08 00:40:04;;;;;;;118.38;55.60;;;;;;;;;;5064413;28;20208;-93
2022/03/08 00:42:30;;;;;;;117.45;56.25;;;;;;;;;;5064539;28;20199;-93
2022/03/08 00:44:56;;;;;;;110.72;53.50;;;;;;;;;;5064857;28;20231;-93
2022/03/08 00:47:23;;;;;;;116.05;55.20;;;;;;;;;;5066418;28;20778;-92
2022/03/08 00:49:50;;;;;;;113.43;54.90;;;;;;;;;;5066241;28;20204;-93
2022/03/08 00:52:17;;;;;;;119.10;56.05;;;;;;;;;;5049457;28;20308;-93
2022/03/08 00:54:44;;;;;;;118.85;56.17;;;;;;;;;;5046077;28;20200;-93
2022/03/08 00:57:10;;;;;;;115.10;55.45;;;;;;;;;;5044892;28;20224;-93
2022/03/08 00:59:37;;;;;;;117.13;56.05;;;;;;;;;;5045277;28;20204;-94
2022/03/08 01:02:04;;;;;;;110.75;53.25;;;;;;;;;;5044372;28;20223;-96
2022/03/08 01:04:30;;;;;;;114.55;53.47;;;;;;;;;;5044355;28;20205;-94
2022/03/08 01:06:57;;;;;;;117.90;54.67;;;;;;;;;;5045273;28;20259;-94
2022/03/08 01:09:25;;;;;;;118.10;53.85;;;;;;;;;;5045159;28;20228;-95
2022/03/08 01:11:51;;;;;;;113.18;52.95;;;;;;;;;;5045698;28;20300;-94
2022/03/08 01:14:18;;;;;;;114.75;53.17;;;;;;;;;;5045947;28;20197;-93
2022/03/08 01:16:44;;;;;;;113.85;51.90;;;;;;;;;;5046252;28;20193;-94
2022/03/08 01:19:11;;;;;;;114.80;51.58;;;;;;;;;;5045990;28;20711;-95
2022/03/08 01:21:38;;;;;;;116.07;53.72;;;;;;;;;;5044776;28;20193;-94
2022/03/08 01:24:05;;;;;;;118.30;54.70;;;;;;;;;;5044976;28;20746;-93
2022/03/08 01:26:33;;;;;;;113.50;52.50;;;;;;;;;;5045793;28;20193;-94
2022/03/08 01:29:00;;;;;;;113.65;52.22;;;;;;;;;;5045829;28;20251;-93
2022/03/08 01:31:27;;;;;;;119.20;53.47;;;;;;;;;;5046045;28;20197;-93
2022/03/08 01:33:54;;;;;;;113.80;52.05;;;;;;;;;;5046300;28;20204;-94
2022/03/08 01:36:21;;;;;;;115.30;53.28;;;;;;;;;;5045792;28;20632;-95
2022/03/08 01:38:48;;;;;;;114.47;54.40;;;;;;;;;;5046538;28;20197;-95
2022/03/08 01:41:14;;;;;;;113.85;52.40;;;;;;;;;;5045989;28;20272;-93
2022/03/08 01:43:42;;;;;;;115.22;53.58;;;;;;;;;;5045610;28;20254;-93
2022/03/08 01:46:08;;;;;;;115.07;52.95;;;;;;;;;;5045868;28;20200;-95
2022/03/08 01:48:35;;;;;;;109.93;51.30;;;;;;;;;;5045707;28;20232;-93
2022/03/08 01:51:02;;;;;;;112.35;53.15;;;;;;;;;;5044956;28;20228;-93
2022/03/08 01:53:28;;;;;;;114.85;52.17;;;;;;;;;;5044182;28;20205;-95
2022/03/08 01:55:54;;;;;;;111.38;52.33;;;;;;;;;;5043151;28;20258;-93
2022/03/08 01:58:21;;;;;;;109.88;51.47;;;;;;;;;;5025521;28;20229;-94
2022/03/08 02:00:49;;;;;;;117.40;52.38;;;;;;;;;;5030760;28;20192;-96
2022/03/08 02:03:15;;;;;;;111.95;51.85;;;;;;;;;;5045985;28;20232;-95
2022/03/08 02:05:42;;;;;;;113.13;52.25;;;;;;;;;;5044909;28;20189;-93
2022/03/08 02:08:08;;;;;;;108.53;52.25;;;;;;;;;;5044547;28;20228;-94
2022/03/08 02:10:35;;;;;;;119.75;55.42;;;;;;;;;;5047412;28;20203;-94
2022/03/08 02:13:01;;;;;;;118.72;54.33;;;;;;;;;;5063013;28;20226;-93
2022/03/08 02:15:29;;;;;;;115.13;54.25;;;;;;;;;;5063756;28;20672;-96
2022/03/08 02:17:57;;;;;;;116.97;52.58;;;;;;;;;;5037665;28;20232;-94
2022/03/08 02:20:25;;;;;;;114.60;54.08;;;;;;;;;;5025807;28;20201;-94
2022/03/08 02:22:53;;;;;;;117.75;53.92;;;;;;;;;;5044217;28;20231;-94
2022/03/08 02:25:20;;;;;;;117.70;54.78;;;;;;;;;;5044759;28;20228;-94
2022/03/08 02:27:47;;;;;;;115.25;54.65;;;;;;;;;;5044859;28;20742;-94
2022/03/08 02:30:14;;;;;;;119.35;54.88;;;;;;;;;;5044889;28;20200;-93
2022/03/08 02:32:42;;;;;;;117.55;54.42;;;;;;;;;;5044030;28;20231;-94
2022/03/08 02:35:09;;;;;;;114.53;55.15;;;;;;;;;;5044308;28;20870;-93
2022/03/08 02:37:40;;;;;;;122.32;56.55;;;;;;;;;;5044138;28;20255;-94
2022/03/08 02:40:09;;;;;;;124.55;58.08;;;;;;;;;;5043936;28;20201;-95
2022/03/08 02:42:36;;;;;;;117.07;55.35;;;;;;;;;;5043753;28;20197;-94
2022/03/08 02:45:03;;;;;;;120.80;57.38;;;;;;;;;;5042931;28;20205;-93
2022/03/08 02:47:29;;;;;;;125.20;58.70;;;;;;;;;;5042776;28;20244;-94
2022/03/08 02:49:55;;;;;;;120.82;55.25;;;;;;;;;;5043222;28;20200;-94
2022/03/08 02:52:22;;;;;;;122.38;57.40;;;;;;;;;;5044700;28;20255;-94
2022/03/08 02:54:48;;;;;;;121.55;57.22;;;;;;;;;;5043802;28;20205;-94
2022/03/08 02:57:16;;;;;;;122.97;57.05;;;;;;;;;;5041751;28;20193;-93
2022/03/08 02:59:43;;;;;;;122.20;57.70;;;;;;;;;;5040953;28;20204;-93
2022/03/08 03:02:09;;;;;;;123.05;57.83;;;;;;;;;;5043053;28;20196;-93
2022/03/08 03:04:36;;;;;;;116.97;56.33;;;;;;;;;;5042526;28;20231;-93
2022/03/08 03:07:02;;;;;;;123.55;56.60;;;;;;;;;;5043320;28;20613;-94
2022/03/08 03:09:29;;;;;;;116.88;55.25;;;;;;;;;;5043010;28;20240;-94
2022/03/08 03:11:55;;;;;;;116.18;54.10;;;;;;;;;;5043632;28;20201;-93
2022/03/08 03:14:23;;;;;;;114.60;54.08;;;;;;;;;;5043750;28;20209;-96
2022/03/08 03:16:50;;;;;;;121.63;54.83;;;;;;;;;;5043449;28;20660;-94
2022/03/08 03:19:16;;;;;;;115.93;54.42;;;;;;;;;;5043505;28;20200;-93
2022/03/08 03:21:43;;;;;;;116.35;54.60;;;;;;;;;;5042515;28;20212;-94
2022/03/08 03:24:09;;;;;;;120.55;55.60;;;;;;;;;;5042120;28;20247;-93
2022/03/08 03:26:36;;;;;;;117.97;54.30;;;;;;;;;;5042838;28;20228;-95
2022/03/08 03:29:02;;;;;;;114.45;54.10;;;;;;;;;;5043459;28;20224;-94
2022/03/08 03:31:30;;;;;;;107.38;51.83;;;;;;;;;;5042697;28;20197;-96
2022/03/08 03:33:56;;;;;;;116.07;53.38;;;;;;;;;;5042845;28;20660;-94
2022/03/08 03:36:23;;;;;;;119.95;54.05;;;;;;;;;;5043381;28;20266;-93
2022/03/08 03:38:49;;;;;;;117.13;53.28;;;;;;;;;;5042913;28;20210;-95
2022/03/08 03:41:16;;;;;;;123.53;57.55;;;;;;;;;;5042455;28;20200;-96
2022/03/08 03:43:42;;;;;;;125.28;56.17;;;;;;;;;;5042291;28;20197;-96
2022/03/08 03:46:09;;;;;;;125.47;55.10;;;;;;;;;;5043119;28;20212;-95
2022/03/08 03:48:37;;;;;;;129.95;55.58;;;;;;;;;;5043489;28;20220;-95
2022/03/08 03:51:04;;;;;;;127.65;57.35;;;;;;;;;;5042959;28;20197;-94
2022/03/08 03:53:31;;;;;;;111.20;50.92;;;;;;;;;;5043160;28;20224;-95
2022/03/08 03:55:57;;;;;;;116.45;54.78;;;;;;;;;;5042192;28;20208;-94
2022/03/08 03:58:24;;;;;;;111.78;52.65;;;;;;;;;;5041935;28;20227;-95
2022/03/08 04:00:50;;;;;;;124.00;57.60;;;;;;;;;;5042660;28;20208;-96
2022/03/08 04:03:18;;;;;;;120.35;55.80;;;;;;;;;;5042664;28;20250;-94
2022/03/08 04:05:46;;;;;;;120.50;55.03;;;;;;;;;;5042731;28;20200;-93
2022/03/08 04:08:13;;;;;;;122.03;55.40;;;;;;;;;;5042434;28;20232;-93
2022/03/08 04:10:39;;;;;;;122.72;56.30;;;;;;;;;;5045363;28;20223;-93
2022/03/08 04:13:06;;;;;;;123.93;57.03;;;;;;;;;;5047778;28;20223;-93
2022/03/08 04:15:32;;;;;;;121.32;55.60;;;;;;;;;;5048825;28;20614;-94
2022/03/08 04:17:59;;;;;;;117.65;55.47;;;;;;;;;;5049982;28;20227;-95
2022/03/08 04:20:25;;;;;;;124.28;56.30;;;;;;;;;;5049487;28;20201;-95
2022/03/08 04:22:53;;;;;;;117.22;54.35;;;;;;;;;;5048971;28;20204;-94
2022/03/08 04:25:20;;;;;;;122.18;56.58;;;;;;;;;;5037298;28;20287;-96
2022/03/08 04:27:46;;;;;;;122.97;55.15;;;;;;;;;;5047918;28;20219;-94
2022/03/08 04:30:13;;;;;;;118.30;53.80;;;;;;;;;;5048921;28;20226;-95
2022/03/08 04:32:39;;;;;;;118.78;54.03;;;;;;;;;;5063242;28;20230;-94
2022/03/08 04:35:06;;;;;;;121.35;54.03;;;;;;;;;;5069693;28;20664;-94
2022/03/08 04:37:33;;;;;;;122.13;55.03;;;;;;;;;;5069273;28;20196;-95
2022/03/08 04:40:01;;;;;;;123.95;55.80;;;;;;;;;;5066110;28;20201;-96
2022/03/08 04:42:27;;;;;;;117.72;52.88;;;;;;;;;;5060095;28;20250;-95
2022/03/08 04:44:54;;;;;;;109.80;52.22;;;;;;;;;;5069712;28;20200;-96
2022/03/08 04:47:21;;;;;;;121.93;56.15;;;;;;;;;;5069268;28;20210;-94
2022/03/08 04:49:47;;;;;;;126.78;55.85;;;;;;;;;;5069285;28;20227;-96
2022/03/08 04:52:13;;;;;;;123.75;55.35;;;;;;;;;;5069808;28;20192;-94
2022/03/08 04:54:40;;;;;;;124.25;55.00;;;;;;;;;;5068711;28;20204;-96
2022/03/08 04:57:08;;;;;;;122.53;55.42;;;;;;;;;;5055873;28;20246;-94
2022/03/08 04:59:34;;;;;;;129.57;55.60;;;;;;;;;;5069336;28;20200;-93
2022/03/08 05:02:01;;;;;;;118.20;55.17;;;;;;;;;;5058450;28;20200;-94
2022/03/08 05:04:27;;;;;;;116.55;54.38;;;;;;;;;;5068518;28;20204;-96
2022/03/08 05:06:54;;;;;;;121.32;55.55;;;;;;;;;;5069238;28;20195;-94
2022/03/08 05:09:20;;;;;;;120.43;54.55;;;;;;;;;;5069144;28;20235;-95
2022/03/08 05:11:47;;;;;;;116.18;54.00;;;;;;;;;;5053272;28;20207;-95
2022/03/08 05:14:15;;;;;;;120.63;56.20;;;;;;;;;;5069425;28;20261;-94
2022/03/08 05:16:41;;;;;;;123.57;56.70;;;;;;;;;;5069012;28;20262;-94
2022/03/08 05:19:08;;;;;;;120.45;53.75;;;;;;;;;;5069476;28;20204;-95
2022/03/08 05:21:34;;;;;;;116.90;53.17;;;;;;;;;;5067290;28;20204;-95
2022/03/08 05:24:01;;;;;;;121.35;55.75;;;;;;;;;;5066064;28;20226;-94
2022/03/08 05:26:27;;;;;;;127.07;57.95;;;;;;;;;;5049582;28;20205;-94
2022/03/08 05:28:54;;;;;;;131.10;61.35;;;;;;;;;;5065552;28;20257;-96
2022/03/08 05:31:22;;;;;;;129.18;56.88;;;;;;;;;;5065675;28;20608;-94
2022/03/08 05:33:48;;;;;;;126.53;57.85;;;;;;;;;;5065206;28;20688;-95
2022/03/08 05:36:14;;;;;;;129.93;59.15;;;;;;;;;;5065558;28;20200;-94
2022/03/08 05:38:41;;;;;;;126.40;59.03;;;;;;;;;;5065353;28;20195;-94
2022/03/08 05:41:07;;;;;;;122.75;57.85;;;;;;;;;;5051424;28;20262;-95
2022/03/08 05:43:34;;;;;;;125.05;60.05;;;;;;;;;;5059986;28;20204;-94
2022/03/08 05:46:00;;;;;;;120.63;58.42;;;;;;;;;;5065079;28;20196;-94
2022/03/08 05:48:28;;;;;;;117.88;52.97;;;;;;;;;;5065188;28;20196;-96
2022/03/08 05:50:55;;;;;;;122.25;55.15;;;;;;;;;;5065416;28;20200;-95
2022/03/08 05:53:21;;;;;;;128.27;57.53;;;;;;;;;;5065048;28;20192;-95
2022/03/08 05:55:48;;;;;;;124.70;55.72;;;;;;;;;;5054921;28;20200;-95
2022/03/08 05:58:14;;;;;;;125.35;57.58;;;;;;;;;;5058630;28;20603;-94
2022/03/08 06:00:40;;;;;;;126.63;59.38;;;;;;;;;;5066024;28;20398;-94
2022/03/08 06:03:07;;;;;;;119.80;56.67;;;;;;;;;;5065140;28;20255;-95
2022/03/08 06:05:35;;;;;;;120.47;55.15;;;;;;;;;;5066134;28;20208;-93
2022/03/08 06:08:02;;;;;;;117.28;54.03;;;;;;;;;;5065270;28;20268;-95
2022/03/08 06:10:28;;;;;;;121.35;55.03;;;;;;;;;;5057877;28;20316;-93
2022/03/08 06:12:55;;;;;;;115.10;52.85;;;;;;;;;;5052997;28;20199;-95
2022/03/08 06:15:21;;;;;;;125.20;57.78;;;;;;;;;;5064407;28;20200;-96
2022/03/08 06:17:48;;;;;;;113.55;52.40;;;;;;;;;;5063547;28;20200;-94
2022/03/08 06:20:14;;;;;;;120.68;56.35;;;;;;;;;;5064588;28;20208;-95
2022/03/08 06:22:42;;;;;;;112.85;52.88;;;;;;;;;;5065372;28;20250;-94
2022/03/08 06:25:09;;;;;;;122.30;55.10;;;;;;;;;;5059649;28;20201;-95
2022/03/08 06:27:36;;;;;;;115.95;55.53;;;;;;;;;;5050622;28;20223;-96
2022/03/08 06:30:03;;;;;;;117.63;52.75;;;;;;;;;;5065804;28;20250;-93
2022/03/08 06:32:30;;;;;;;135.82;55.53;;;;;;;;;;5063460;28;20196;-95
2022/03/08 06:34:56;;;;;;;108.25;51.90;;;;;;;;;;5062944;28;20196;-94
2022/03/08 06:37:22;;;;;;;113.88;54.47;;;;;;;;;;5064208;28;20223;-93
2022/03/08 06:39:50;;;;;;;126.68;56.08;;;;;;;;;;5062334;28;20226;-94
2022/03/08 06:42:18;;;;;;;116.30;54.10;;;;;;;;;;5041287;28;20258;-95
2022/03/08 06:44:44;;;;;;;113.07;52.25;;;;;;;;;;5042882;28;20235;-94
2022/03/08 06:47:11;;;;;;;118.97;54.38;;;;;;;;;;5043633;28;20285;-95
2022/03/08 06:49:39;;;;;;;109.55;50.97;;;;;;;;;;5043058;28;20224;-94
2022/03/08 06:52:06;;;;;;;111.85;52.13;;;;;;;;;;5044040;28;20200;-96
2022/03/08 06:54:32;;;;;;;120.60;54.95;;;;;;;;;;5043942;28;20197;-94
2022/03/08 06:57:00;;;;;;;135.32;57.90;;;;;;;;;;5041162;28;20259;-94
2022/03/08 06:59:27;;;;;;;121.65;56.63;;;;;;;;;;5041350;28;20204;-94
2022/03/08 07:01:53;;;;;;;123.32;55.08;;;;;;;;;;5042240;28;20197;-93
2022/03/08 07:04:20;;;;;;;130.38;55.88;;;;;;;;;;5041875;28;20223;-95
2022/03/08 07:06:46;;;;;;;117.95;56.83;;;;;;;;;;5043684;28;20208;-94
2022/03/08 07:09:13;;;;;;;113.25;53.97;;;;;;;;;;5043024;28;20263;-95
2022/03/08 07:11:40;;;;;;;119.47;56.55;;;;;;;;;;5042891;28;20300;-93
2022/03/08 07:14:08;;;;;;;119.78;57.05;;;;;;;;;;5041231;28;20201;-92
2022/03/08 07:16:35;;;;;;;113.35;54.60;;;;;;;;;;5043573;28;20205;-94
2022/03/08 07:19:01;;;;;;;111.88;52.90;;;;;;;;;;5043006;28;20228;-95
2022/03/08 07:21:28;;;;;;;121.85;56.05;;;;;;;;;;5043373;28;20219;-95
2022/03/08 07:23:55;;;;;;;122.70;56.05;;;;;;;;;;5042993;28;20251;-95
2022/03/08 07:26:21;;;;;;;131.55;61.05;;;;;;;;;;5039976;28;20204;-95
2022/03/08 07:28:48;;;;;;;112.38;54.63;;;;;;;;;;5041684;28;20223;-96
2022/03/08 07:31:16;;;;;;;125.20;58.90;;;;;;;;;;5043513;28;20291;-95
2022/03/08 07:33:42;;;;;;;120.35;55.80;;;;;;;;;;5042917;28;20212;-95
2022/03/08 07:36:09;;;;;;;124.40;56.00;;;;;;;;;;5041334;28;20740;-94
2022/03/08 07:38:36;;;;;;;122.47;58.50;;;;;;;;;;5049360;28;20196;-94
2022/03/08 07:41:03;;;;;;;121.70;56.60;;;;;;;;;;5043960;28;20311;-94
2022/03/08 07:43:30;;;;;;;125.93;56.83;;;;;;;;;;5045519;28;20188;-96
2022/03/08 07:45:56;;;;;;;120.30;56.42;;;;;;;;;;5060868;28;20204;-95
2022/03/08 07:48:24;;;;;;;122.53;54.42;;;;;;;;;;5045530;28;20203;-94
2022/03/08 07:50:50;;;;;;;111.95;54.17;;;;;;;;;;5062605;28;20250;-96
2022/03/08 07:53:17;;;;;;;114.85;54.05;;;;;;;;;;5059166;28;20556;-94
2022/03/08 07:55:43;;;;;;;125.40;58.83;;;;;;;;;;5052980;28;20258;-94
2022/03/08 07:58:12;;;;;;;122.20;56.13;;;;;;;;;;5041758;28;20263;-95
2022/03/08 08:00:41;;;;;;;130.65;57.78;;;;;;;;;;5040756;28;21069;-96
2022/03/08 08:03:07;;;;;;;115.82;55.03;;;;;;;;;;5047474;28;20188;-94
2022/03/08 08:05:35;;;;;;;123.10;57.92;;;;;;;;;;5060397;28;20200;-92
2022/03/08 08:08:02;;;;;;;127.05;58.47;;;;;;;;;;5055135;28;20214;-94
2022/03/08 08:10:28;;;;;;;121.65;56.47;;;;;;;;;;5050470;28;20228;-93
2022/03/08 08:12:55;;;;;;;124.68;56.22;;;;;;;;;;5041152;28;20196;-93
2022/03/08 08:15:21;;;;;;;118.30;55.67;;;;;;;;;;5061392;28;20250;-94
2022/03/08 08:17:48;;;;;;;125.28;56.83;;;;;;;;;;5060913;28;20221;-94
2022/03/08 08:20:14;;;;;;;119.00;54.45;;;;;;;;;;5061647;28;20620;-94
2022/03/08 08:22:42;;;;;;;115.85;54.13;;;;;;;;;;5062767;28;20200;-94
2022/03/08 08:25:10;;;;;;;135.43;60.42;;;;;;;;;;5025065;28;20327;-93
2022/03/08 08:27:37;;;;;;;121.80;57.17;;;;;;;;;;5033743;28;20224;-91
2022/03/08 08:30:04;;;;;;;119.55;56.47;;;;;;;;;;5040000;28;20220;-95
2022/03/08 08:32:30;;;;;;;121.03;56.50;;;;;;;;;;5040463;28;20266;-93
2022/03/08 08:34:57;;;;;;;117.75;53.10;;;;;;;;;;5040139;28;20193;-92
2022/03/08 08:37:23;;;;;;;126.50;59.15;;;;;;;;;;5040798;28;20201;-93
2022/03/08 08:39:52;;;;;;;122.82;57.40;;;;;;;;;;5040282;28;20196;-94
2022/03/08 08:42:19;;;;;;;116.53;54.05;;;;;;;;;;5043884;28;20197;-96
2022/03/08 08:44:45;;;;;;;120.18;54.35;;;;;;;;;;5060170;28;20196;-93
2022/03/08 08:47:12;;;;;;;118.53;56.03;;;;;;;;;;5065133;28;20606;-95
2022/03/08 08:49:39;;;;;;;114.55;53.33;;;;;;;;;;5064496;28;20220;-93
2022/03/08 08:52:05;;;;;;;133.32;55.60;;;;;;;;;;5063175;28;20204;-95
2022/03/08 08:54:33;;;;;;;114.65;53.92;;;;;;;;;;5064377;28;20200;-96
2022/03/08 08:57:01;;;;;;;121.20;54.85;;;;;;;;;;5027131;28;20202;-96
2022/03/08 08:59:28;;;;;;;128.57;59.50;;;;;;;;;;5041616;28;20223;-93
2022/03/08 09:01:56;;;;;;;120.18;54.88;;;;;;;;;;5047719;28;20197;-96
2022/03/08 09:04:23;;;;;;;122.72;56.42;;;;;;;;;;5050879;28;20194;-96
2022/03/08 09:06:49;;;;;;;124.80;57.80;;;;;;;;;;5047503;28;20200;-95
2022/03/08 09:09:16;;;;;;;110.68;52.95;;;;;;;;;;5050721;28;20233;-96
2022/03/08 09:11:46;;;;;;;117.95;54.83;;;;;;;;;;5035373;28;20239;-96
2022/03/08 09:14:14;;;;;;;118.90;54.30;;;;;;;;;;5050527;28;20223;-96
2022/03/08 09:16:42;;;;;;;125.25;56.58;;;;;;;;;;5049711;28;20201;-95
2022/03/08 09:19:09;;;;;;;117.88;54.60;;;;;;;;;;5048929;28;20224;-94
2022/03/08 09:21:39;;;;;;;126.53;57.88;;;;;;;;;;5048713;28;20212;-96
2022/03/08 09:24:07;;;;;;;120.72;57.55;;;;;;;;;;5050155;28;20259;-96
2022/03/08 09:26:34;;;;;;;115.20;53.60;;;;;;;;;;5049462;28;20236;-95
2022/03/08 09:29:01;;;;;;;121.43;56.33;;;;;;;;;;5057056;28;20195;-95
2022/03/08 09:31:29;;;;;;;120.30;55.05;;;;;;;;;;5066244;28;20322;-95
2022/03/08 09:33:55;;;;;;;125.10;56.55;;;;;;;;;;5061890;28;20346;-93
2022/03/08 09:36:22;;;;;;;115.28;54.45;;;;;;;;;;5049757;28;20177;-96
2022/03/08 09:38:48;;;;;;;119.28;55.05;;;;;;;;;;5050428;28;20201;-96
2022/03/08 09:41:15;;;;;;;120.20;54.25;;;;;;;;;;5048743;28;20235;-96
2022/03/08 09:43:44;;;;;;;121.65;54.85;;;;;;;;;;5049436;28;20259;-94
2022/03/08 09:46:11;;;;;;;118.95;55.10;;;;;;;;;;5047931;28;20223;-95
2022/03/08 09:48:39;;;;;;;128.88;58.38;;;;;;;;;;5047608;28;20258;-95
2022/03/08 09:51:06;;;;;;;119.47;56.55;;;;;;;;;;5046822;28;20282;-96
2022/03/08 09:53:34;;;;;;;123.80;57.88;;;;;;;;;;5049345;28;20227;-96
2022/03/08 09:56:12;;;;;;;119.28;54.40;;;;;;;;;;5067014;28;20203;-96
2022/03/08 09:58:40;;;;;;;116.57;55.20;;;;;;;;;;5067521;28;20205;-95
2022/03/08 10:01:07;;;;;;;116.75;53.25;;;;;;;;;;5068259;28;20227;-96
2022/03/08 10:03:35;;;;;;;121.50;57.40;;;;;;;;;;5067574;28;20195;-95
2022/03/08 10:06:05;;;;;;;121.10;56.63;;;;;;;;;;5070381;28;20215;-95
2022/03/08 10:08:32;;;;;;;121.22;55.90;;;;;;;;;;5070112;28;20251;-96
2022/03/08 10:10:59;;;;;;;125.57;56.72;;;;;;;;;;5056506;28;20220;-95
2022/03/08 10:13:28;;;;;;;115.20;55.13;;;;;;;;;;5045242;28;20391;-93
2022/03/08 10:16:05;;;;;;;117.20;55.25;;;;;;;;;;5024905;28;20229;-95
2022/03/08 10:18:32;;;;;;;116.35;54.80;;;;;;;;;;5025242;28;20205;-93
2022/03/08 10:20:58;;;;;;;121.47;54.50;;;;;;;;;;5045032;28;20258;-93
2022/03/08 10:23:26;;;;;;;120.72;55.55;;;;;;;;;;5045086;28;20239;-94
2022/03/08 10:25:53;;;;;;;118.25;54.40;;;;;;;;;;5044647;28;20201;-93
2022/03/08 10:28:19;;;;;;;125.72;58.15;;;;;;;;;;5044650;28;20205;-93
2022/03/08 10:30:55;;;;;;;122.97;57.70;;;;;;;;;;5062148;28;20220;-96
2022/03/08 10:33:33;;;;;;;116.68;55.58;;;;;;;;;;5065753;28;20230;-96
2022/03/08 10:36:01;;;;;;;114.88;53.80;;;;;;;;;;5025708;28;20197;-96
2022/03/08 10:38:30;;;;;;;115.78;53.30;;;;;;;;;;5027554;28;20201;-94
2022/03/08 10:40:58;;;;;;;118.13;53.70;;;;;;;;;;5045038;28;20201;-95
2022/03/08 10:43:27;;;;;;;119.28;55.67;;;;;;;;;;5044827;28;20227;-94
2022/03/08 10:45:54;;;;;;;118.38;55.42;;;;;;;;;;5045695;28;20211;-92
2022/03/08 10:48:26;;;;;;;118.45;56.65;;;;;;;;;;5044970;28;20201;-95
2022/03/08 10:50:52;;;;;;;117.13;54.80;;;;;;;;;;5046439;28;20251;-95
2022/03/08 10:53:24;;;;;;;116.97;54.38;;;;;;;;;;5047052;28;20271;-94
2022/03/08 10:55:52;;;;;;;122.57;54.92;;;;;;;;;;5046713;28;20200;-95
2022/03/08 10:58:20;;;;;;;118.63;54.17;;;;;;;;;;5047955;28;20224;-96
2022/03/08 11:00:48;;;;;;;121.15;57.20;;;;;;;;;;5045413;28;20209;-95
2022/03/08 11:03:15;;;;;;;119.07;56.22;;;;;;;;;;5046734;28;20212;-95
2022/03/08 11:05:43;;;;;;;118.28;57.03;;;;;;;;;;5045219;28;20200;-94
2022/03/08 11:08:10;;;;;;;109.82;52.20;;;;;;;;;;5045980;28;20205;-93
2022/03/08 11:10:39;;;;;;;116.50;53.22;;;;;;;;;;5045974;28;20224;-95
2022/03/08 11:13:08;;;;;;;116.47;54.60;;;;;;;;;;5046153;28;20925;-94
2022/03/08 11:15:35;;;;;;;118.00;53.38;;;;;;;;;;5058649;28;20263;-94
2022/03/08 11:18:03;;;;;;;130.73;57.97;;;;;;;;;;5066334;28;20204;-96
2022/03/08 11:20:30;;;;;;;123.20;57.22;;;;;;;;;;5064297;28;20200;-96
2022/03/08 11:22:57;;;;;;;126.53;58.33;;;;;;;;;;5066442;28;20262;-96
2022/03/08 11:25:26;;;;;;;129.02;57.83;;;;;;;;;;5060097;28;20201;-96
2022/03/08 11:27:52;;;;;;;118.07;55.28;;;;;;;;;;5047960;28;20308;-95
2022/03/08 11:30:21;;;;;;;117.13;55.47;;;;;;;;;;5056647;28;20219;-92
2022/03/08 11:32:52;;;;;;;114.55;55.28;;;;;;;;;;5065818;28;20220;-96
2022/03/08 11:35:27;;;;;;;125.55;57.85;;;;;;;;;;5065568;28;20330;-96
2022/03/08 11:37:53;;;;;;;121.38;54.28;;;;;;;;;;5066107;28;20213;-95
2022/03/08 11:40:21;;;;;;;117.13;55.03;;;;;;;;;;5058269;28;20203;-95
2022/03/08 11:42:52;;;;;;;114.65;53.53;;;;;;;;;;5046141;28;20270;-95
2022/03/08 11:45:20;;;;;;;119.00;55.20;;;;;;;;;;5055046;28;20770;-96
2022/03/08 11:47:51;;;;;;;120.05;57.30;;;;;;;;;;5064524;28;20254;-95
2022/03/08 11:50:19;;;;;;;129.00;58.03;;;;;;;;;;5055543;28;20208;-94
2022/03/08 11:52:51;;;;;;;121.30;55.53;;;;;;;;;;5045210;28;20200;-92
2022/03/08 11:55:24;;;;;;;118.93;54.95;;;;;;;;;;5043916;28;20302;-94
2022/03/08 11:57:52;;;;;;;121.47;56.28;;;;;;;;;;5044556;28;20209;-96
2022/03/08 12:00:22;;;;;;;125.07;57.17;;;;;;;;;;5046366;28;20213;-96
2022/03/08 12:02:50;;;;;;;120.28;55.55;;;;;;;;;;5028688;28;20201;-95
2022/03/08 12:05:36;;;;;;;119.50;56.97;;;;;;;;;;5046267;28;20200;-96
2022/03/08 12:08:17;;;;;;;123.37;58.73;;;;;;;;;;5045026;28;20201;-95
2022/03/08 12:10:44;;;;;;;136.40;60.70;;;;;;;;;;5047954;28;21068;-96
2022/03/08 12:13:12;;;;;;;121.83;55.77;;;;;;;;;;5044978;28;20475;-95
2022/03/08 12:16:08;;;;;;;118.83;55.53;;;;;;;;;;5058104;28;20977;-96
2022/03/08 12:18:34;;;;;;;122.00;57.55;;;;;;;;;;5064052;28;20498;-96
2022/03/08 12:21:23;;;;;;;122.35;57.40;;;;;;;;;;5063125;28;20195;-96
2022/03/08 12:23:53;;;;;;;126.32;59.22;;;;;;;;;;5051124;28;20208;-96
2022/03/08 12:26:23;;;;;;;127.47;59.78;;;;;;;;;;5046266;28;20204;-96
2022/03/08 12:29:09;;;;;;;120.13;55.83;;;;;;;;;;5045579;28;20224;-93
2022/03/08 12:31:50;;;;;;;121.90;56.83;;;;;;;;;;5065080;28;20486;-95
2022/03/08 12:34:18;;;;;;;126.88;57.45;;;;;;;;;;5069124;28;20651;-96
2022/03/08 12:37:00;;;;;;;121.03;56.97;;;;;;;;;;5049361;28;20193;-96
2022/03/08 12:39:49;;;;;;;122.90;56.30;;;;;;;;;;5049263;28;20201;-94
2022/03/08 12:42:20;;;;;;;121.15;56.35;;;;;;;;;;5047515;28;20826;-95
2022/03/08 12:44:51;;;;;;;124.67;58.33;;;;;;;;;;5050325;28;20188;-95
2022/03/08 12:47:18;;;;;;;124.17;57.40;;;;;;;;;;5068960;28;20485;-96
2022/03/08 12:49:46;;;;;;;129.05;60.05;;;;;;;;;;5066495;28;20457;-96
2022/03/08 12:52:13;;;;;;;122.53;56.20;;;;;;;;;;5049466;28;20224;-95
2022/03/08 12:54:43;;;;;;;129.93;59.72;;;;;;;;;;5050032;28;20273;-95
2022/03/08 12:57:11;;;;;;;124.00;59.57;;;;;;;;;;5047731;28;20235;-96
2022/03/08 12:59:44;;;;;;;123.68;57.78;;;;;;;;;;5047310;28;20447;-95
2022/03/08 13:02:11;;;;;;;122.88;57.42;;;;;;;;;;5048604;28;20201;-94
2022/03/08 13:04:38;;;;;;;131.73;59.53;;;;;;;;;;5048024;28;20205;-95
2022/03/08 13:07:13;;;;;;;118.47;57.43;;;;;;;;;;5067021;28;20200;-96
2022/03/08 13:09:49;;;;;;;122.88;59.03;;;;;;;;;;5065188;28;20481;-95
2022/03/08 13:12:19;;;;;;;124.13;56.17;;;;;;;;;;5067001;28;20631;-94
2022/03/08 13:15:01;;;;;;;123.72;58.10;;;;;;;;;;5067214;28;20859;-96
2022/03/08 13:17:30;;;;;;;126.38;58.13;;;;;;;;;;5067570;28;20223;-96
2022/03/08 13:19:57;;;;;;;122.47;58.50;;;;;;;;;;5065690;28;20196;-96
2022/03/08 13:22:25;;;;;;;126.75;57.85;;;;;;;;;;5047283;28;20254;-93
2022/03/08 13:25:12;;;;;;;113.93;55.30;;;;;;;;;;5045709;28;20208;-92
2022/03/08 13:27:55;;;;;;;120.43;55.75;;;;;;;;;;5041074;28;20224;-94
2022/03/08 13:30:23;;;;;;;122.57;58.70;;;;;;;;;;5051113;28;20246;-92
2022/03/08 13:32:49;;;;;;;123.45;56.38;;;;;;;;;;5067706;28;20254;-95
2022/03/08 13:35:20;;;;;;;123.97;56.75;;;;;;;;;;5063375;28;20197;-93
2022/03/08 13:38:02;;;;;;;124.03;57.33;;;;;;;;;;5047638;28;20196;-95
2022/03/08 13:40:29;;;;;;;120.15;57.42;;;;;;;;;;5047213;28;20201;-93
2022/03/08 13:42:57;;;;;;;122.00;57.85;;;;;;;;;;5046379;28;20201;-94
2022/03/08 13:45:23;;;;;;;126.20;60.15;;;;;;;;;;5050298;28;20188;-96
2022/03/08 13:47:52;;;;;;;124.32;57.28;;;;;;;;;;5065690;28;20200;-93
2022/03/08 13:50:21;;;;;;;116.43;55.00;;;;;;;;;;5047935;28;20211;-96
2022/03/08 13:52:52;;;;;;;122.65;57.83;;;;;;;;;;5066673;28;20224;-94
2022/03/08 13:55:20;;;;;;;124.35;56.90;;;;;;;;;;5066852;28;20196;-96
2022/03/08 13:57:54;;;;;;;124.95;57.88;;;;;;;;;;5068138;28;20192;-94
2022/03/08 14:00:20;;;;;;;119.53;56.55;;;;;;;;;;5067481;28;20223;-95
2022/03/08 14:02:47;;;;;;;120.40;56.07;;;;;;;;;;5065791;28;20712;-93
2022/03/08 14:05:13;;;;;;;120.00;55.42;;;;;;;;;;5065310;28;20451;-96
2022/03/08 14:07:39;;;;;;;120.93;55.15;;;;;;;;;;5065386;28;20200;-94